sensor_id;sensor_type;location;lat;lon;timestamp;temperature;humidity
27384;DHT22;14851;51.166;4.760;2022-09-09T00:04:41;13.60;99.90
27384;DHT22;14851;51.166;4.760;2022-09-09T00:15:39;13.70;99.90
27384;DHT22;14851;51.166;4.760;2022-09-09T00:21:13;13.70;99.90
27384;DHT22;14851;51.166;4.760;2022-09-09T00:23:53;13.60;99.90
27384;DHT22;14851;51.166;4.760;2022-09-09T00:26:45;13.60;99.90
27384;DHT22;14851;51.166;4.760;2022-09-09T00:29:51;13.60;99.90
27384;DHT22;14851;51.166;4.760;2022-09-09T00:32:16;13.60;99.90
27384;DHT22;14851;51.166;4.760;2022-09-09T00:34:56;13.60;99.90
27384;DHT22;14851;51.166;4.760;2022-09-09T00:37:29;13.70;99.90
27384;DHT22;14851;51.166;4.760;2022-09-09T00:40:00;13.60;99.90
27384;DHT22;14851;51.166;4.760;2022-09-09T00:42:43;13.60;99.90
27384;DHT22;14851;51.166;4.760;2022-09-09T00:48:14;13.40;99.90
27384;DHT22;14851;51.166;4.760;2022-09-09T00:50:57;13.30;99.90
27384;DHT22;14851;51.166;4.760;2022-09-09T00:53:29;13.40;99.90
27384;DHT22;14851;51.166;4.760;2022-09-09T00:56:20;13.30;99.90
27384;DHT22;14851;51.166;4.760;2022-09-09T00:59:14;13.40;99.90
27384;DHT22;14851;51.166;4.760;2022-09-09T01:01:42;13.40;99.90
27384;DHT22;14851;51.166;4.760;2022-09-09T01:04:14;13.30;99.90
27384;DHT22;14851;51.166;4.760;2022-09-09T01:06:43;13.40;99.90
27384;DHT22;14851;51.166;4.760;2022-09-09T01:09:25;13.40;99.90
27384;DHT22;14851;51.166;4.760;2022-09-09T01:17:44;13.30;99.90
27384;DHT22;14851;51.166;4.760;2022-09-09T01:20:30;13.30;99.90
27384;DHT22;14851;51.166;4.760;2022-09-09T01:23:25;13.30;99.90
27384;DHT22;14851;51.166;4.760;2022-09-09T01:26:41;13.30;99.90
27384;DHT22;14851;51.166;4.760;2022-09-09T01:29:15;13.40;99.90
27384;DHT22;14851;51.166;4.760;2022-09-09T01:31:59;13.30;99.90
27384;DHT22;14851;51.166;4.760;2022-09-09T01:34:36;13.20;99.90
27384;DHT22;14851;51.166;4.760;2022-09-09T01:37:10;13.00;99.90
27384;DHT22;14851;51.166;4.760;2022-09-09T01:39:40;13.00;99.90
27384;DHT22;14851;51.166;4.760;2022-09-09T01:42:13;13.00;99.90
27384;DHT22;14851;51.166;4.760;2022-09-09T01:44:40;13.10;99.90
27384;DHT22;14851;51.166;4.760;2022-09-09T01:47:07;13.10;99.90
27384;DHT22;14851;51.166;4.760;2022-09-09T01:49:38;13.20;99.90
27384;DHT22;14851;51.166;4.760;2022-09-09T01:52:12;13.30;99.90
27384;DHT22;14851;51.166;4.760;2022-09-09T01:54:40;13.20;99.90
27384;DHT22;14851;51.166;4.760;2022-09-09T02:00:24;13.00;99.90
27384;DHT22;14851;51.166;4.760;2022-09-09T02:05:38;12.90;99.90
27384;DHT22;14851;51.166;4.760;2022-09-09T02:11:18;13.00;99.90
27384;DHT22;14851;51.166;4.760;2022-09-09T02:14:23;13.00;99.90
27384;DHT22;14851;51.166;4.760;2022-09-09T02:16:55;12.90;99.90
27384;DHT22;14851;51.166;4.760;2022-09-09T02:19:36;12.80;99.90
27384;DHT22;14851;51.166;4.760;2022-09-09T02:22:17;12.80;99.90
27384;DHT22;14851;51.166;4.760;2022-09-09T02:24:46;13.00;99.90
27384;DHT22;14851;51.166;4.760;2022-09-09T02:27:22;13.20;99.90
27384;DHT22;14851;51.166;4.760;2022-09-09T02:29:49;13.00;99.90
27384;DHT22;14851;51.166;4.760;2022-09-09T02:32:23;13.00;99.90
27384;DHT22;14851;51.166;4.760;2022-09-09T02:34:56;13.00;99.90
27384;DHT22;14851;51.166;4.760;2022-09-09T02:37:27;13.10;99.90
27384;DHT22;14851;51.166;4.760;2022-09-09T02:39:56;13.00;99.90
27384;DHT22;14851;51.166;4.760;2022-09-09T02:42:23;13.10;99.90
27384;DHT22;14851;51.166;4.760;2022-09-09T02:44:51;13.30;99.90
27384;DHT22;14851;51.166;4.760;2022-09-09T02:47:29;13.30;99.90
27384;DHT22;14851;51.166;4.760;2022-09-09T02:50:15;13.30;99.90
27384;DHT22;14851;51.166;4.760;2022-09-09T02:55:41;13.40;99.90
27384;DHT22;14851;51.166;4.760;2022-09-09T02:58:13;13.40;99.90
27384;DHT22;14851;51.166;4.760;2022-09-09T03:00:49;13.50;99.90
27384;DHT22;14851;51.166;4.760;2022-09-09T03:03:16;13.60;99.90
27384;DHT22;14851;51.166;4.760;2022-09-09T03:05:44;13.50;99.90
27384;DHT22;14851;51.166;4.760;2022-09-09T03:08:11;13.70;99.90
27384;DHT22;14851;51.166;4.760;2022-09-09T03:10:43;13.50;99.90
27384;DHT22;14851;51.166;4.760;2022-09-09T03:13:14;13.60;99.90
27384;DHT22;14851;51.166;4.760;2022-09-09T03:15:43;13.60;99.90
27384;DHT22;14851;51.166;4.760;2022-09-09T03:18:15;13.50;99.90
27384;DHT22;14851;51.166;4.760;2022-09-09T03:20:41;13.50;99.90
27384;DHT22;14851;51.166;4.760;2022-09-09T03:23:08;13.50;99.90
27384;DHT22;14851;51.166;4.760;2022-09-09T03:25:34;13.60;99.90
27384;DHT22;14851;51.166;4.760;2022-09-09T03:28:01;13.50;99.90
27384;DHT22;14851;51.166;4.760;2022-09-09T03:30:28;13.50;99.90
27384;DHT22;14851;51.166;4.760;2022-09-09T03:32:58;13.60;99.90
27384;DHT22;14851;51.166;4.760;2022-09-09T03:35:29;13.60;99.90
27384;DHT22;14851;51.166;4.760;2022-09-09T03:37:55;13.80;99.90
27384;DHT22;14851;51.166;4.760;2022-09-09T03:40:21;13.70;99.90
27384;DHT22;14851;51.166;4.760;2022-09-09T03:42:48;13.80;99.90
27384;DHT22;14851;51.166;4.760;2022-09-09T03:45:15;13.80;99.90
27384;DHT22;14851;51.166;4.760;2022-09-09T03:47:42;13.80;99.90
27384;DHT22;14851;51.166;4.760;2022-09-09T03:50:09;13.80;99.90
27384;DHT22;14851;51.166;4.760;2022-09-09T03:52:42;13.80;99.90
27384;DHT22;14851;51.166;4.760;2022-09-09T03:55:14;13.80;99.90
27384;DHT22;14851;51.166;4.760;2022-09-09T03:57:40;13.70;99.90
27384;DHT22;14851;51.166;4.760;2022-09-09T04:00:09;13.80;99.90
27384;DHT22;14851;51.166;4.760;2022-09-09T04:02:48;13.80;99.90
27384;DHT22;14851;51.166;4.760;2022-09-09T04:05:16;13.90;99.90
27384;DHT22;14851;51.166;4.760;2022-09-09T04:07:44;13.90;99.90
27384;DHT22;14851;51.166;4.760;2022-09-09T04:10:16;13.80;99.90
27384;DHT22;14851;51.166;4.760;2022-09-09T04:12:42;13.90;99.90
27384;DHT22;14851;51.166;4.760;2022-09-09T04:15:09;13.90;99.90
27384;DHT22;14851;51.166;4.760;2022-09-09T04:17:37;13.80;99.90
27384;DHT22;14851;51.166;4.760;2022-09-09T04:20:03;14.00;99.90
27384;DHT22;14851;51.166;4.760;2022-09-09T04:22:29;13.80;99.90
27384;DHT22;14851;51.166;4.760;2022-09-09T04:24:56;13.90;99.90
27384;DHT22;14851;51.166;4.760;2022-09-09T04:27:24;13.80;99.90
27384;DHT22;14851;51.166;4.760;2022-09-09T04:29:50;13.90;99.90
27384;DHT22;14851;51.166;4.760;2022-09-09T04:32:16;13.80;99.90
27384;DHT22;14851;51.166;4.760;2022-09-09T04:34:42;14.00;99.90
27384;DHT22;14851;51.166;4.760;2022-09-09T04:37:09;14.00;99.90
27384;DHT22;14851;51.166;4.760;2022-09-09T04:39:37;13.80;99.90
27384;DHT22;14851;51.166;4.760;2022-09-09T04:42:05;13.80;99.90
27384;DHT22;14851;51.166;4.760;2022-09-09T04:44:31;13.80;99.90
27384;DHT22;14851;51.166;4.760;2022-09-09T04:46:57;13.80;99.90
27384;DHT22;14851;51.166;4.760;2022-09-09T04:49:23;13.80;99.90
27384;DHT22;14851;51.166;4.760;2022-09-09T04:51:49;13.80;99.90
27384;DHT22;14851;51.166;4.760;2022-09-09T04:54:17;13.90;99.90
27384;DHT22;14851;51.166;4.760;2022-09-09T04:56:44;13.90;99.90
27384;DHT22;14851;51.166;4.760;2022-09-09T04:59:11;13.70;99.90
27384;DHT22;14851;51.166;4.760;2022-09-09T05:01:43;13.90;99.90
27384;DHT22;14851;51.166;4.760;2022-09-09T05:04:10;13.90;99.90
27384;DHT22;14851;51.166;4.760;2022-09-09T05:06:36;13.70;99.90
27384;DHT22;14851;51.166;4.760;2022-09-09T05:09:03;13.70;99.90
27384;DHT22;14851;51.166;4.760;2022-09-09T05:11:31;13.70;99.90
27384;DHT22;14851;51.166;4.760;2022-09-09T05:14:08;13.80;99.90
27384;DHT22;14851;51.166;4.760;2022-09-09T05:16:36;13.90;99.90
27384;DHT22;14851;51.166;4.760;2022-09-09T05:19:03;13.70;99.90
27384;DHT22;14851;51.166;4.760;2022-09-09T05:22:03;13.90;99.90
27384;DHT22;14851;51.166;4.760;2022-09-09T05:24:38;13.80;99.90
27384;DHT22;14851;51.166;4.760;2022-09-09T05:27:05;13.70;99.90
27384;DHT22;14851;51.166;4.760;2022-09-09T05:29:32;13.90;99.90
27384;DHT22;14851;51.166;4.760;2022-09-09T05:32:04;13.90;99.90
27384;DHT22;14851;51.166;4.760;2022-09-09T05:34:30;13.90;99.90
27384;DHT22;14851;51.166;4.760;2022-09-09T05:36:56;13.90;99.90
27384;DHT22;14851;51.166;4.760;2022-09-09T05:39:23;13.80;99.90
27384;DHT22;14851;51.166;4.760;2022-09-09T05:41:49;13.90;99.90
27384;DHT22;14851;51.166;4.760;2022-09-09T05:44:16;13.90;99.90
27384;DHT22;14851;51.166;4.760;2022-09-09T05:46:42;13.90;99.90
27384;DHT22;14851;51.166;4.760;2022-09-09T05:49:13;14.00;99.90
27384;DHT22;14851;51.166;4.760;2022-09-09T05:51:41;14.00;99.90
27384;DHT22;14851;51.166;4.760;2022-09-09T05:54:11;14.00;99.90
27384;DHT22;14851;51.166;4.760;2022-09-09T05:56:42;14.00;99.90
27384;DHT22;14851;51.166;4.760;2022-09-09T05:59:12;14.00;99.90
27384;DHT22;14851;51.166;4.760;2022-09-09T06:01:41;14.00;99.90
27384;DHT22;14851;51.166;4.760;2022-09-09T06:04:15;14.10;99.90
27384;DHT22;14851;51.166;4.760;2022-09-09T06:06:41;14.30;99.90
27384;DHT22;14851;51.166;4.760;2022-09-09T06:09:14;14.20;99.90
27384;DHT22;14851;51.166;4.760;2022-09-09T06:11:42;14.30;99.90
27384;DHT22;14851;51.166;4.760;2022-09-09T06:14:10;14.40;99.90
27384;DHT22;14851;51.166;4.760;2022-09-09T06:16:38;14.60;99.90
27384;DHT22;14851;51.166;4.760;2022-09-09T06:19:14;14.60;99.90
27384;DHT22;14851;51.166;4.760;2022-09-09T06:21:41;14.70;99.90
27384;DHT22;14851;51.166;4.760;2022-09-09T06:24:08;14.60;99.90
27384;DHT22;14851;51.166;4.760;2022-09-09T06:26:39;14.90;99.90
27384;DHT22;14851;51.166;4.760;2022-09-09T06:29:12;14.70;99.90
27384;DHT22;14851;51.166;4.760;2022-09-09T06:31:40;14.80;99.90
27384;DHT22;14851;51.166;4.760;2022-09-09T06:34:14;14.60;99.90
27384;DHT22;14851;51.166;4.760;2022-09-09T06:36:45;14.60;99.90
27384;DHT22;14851;51.166;4.760;2022-09-09T06:39:12;14.70;99.90
27384;DHT22;14851;51.166;4.760;2022-09-09T06:41:39;14.60;99.90
27384;DHT22;14851;51.166;4.760;2022-09-09T06:44:12;15.10;99.90
27384;DHT22;14851;51.166;4.760;2022-09-09T06:46:41;14.90;99.90
27384;DHT22;14851;51.166;4.760;2022-09-09T06:49:09;15.10;99.90
27384;DHT22;14851;51.166;4.760;2022-09-09T06:51:38;15.10;99.90
27384;DHT22;14851;51.166;4.760;2022-09-09T06:54:11;15.00;99.90
27384;DHT22;14851;51.166;4.760;2022-09-09T06:56:42;14.80;99.90
27384;DHT22;14851;51.166;4.760;2022-09-09T06:59:15;14.90;99.90
27384;DHT22;14851;51.166;4.760;2022-09-09T07:01:42;15.00;99.90
27384;DHT22;14851;51.166;4.760;2022-09-09T07:04:19;15.10;99.90
27384;DHT22;14851;51.166;4.760;2022-09-09T07:06:45;15.10;99.90
27384;DHT22;14851;51.166;4.760;2022-09-09T07:09:23;15.10;99.90
27384;DHT22;14851;51.166;4.760;2022-09-09T07:11:51;15.10;99.90
27384;DHT22;14851;51.166;4.760;2022-09-09T07:14:20;15.00;99.90
27384;DHT22;14851;51.166;4.760;2022-09-09T07:16:51;15.10;99.90
27384;DHT22;14851;51.166;4.760;2022-09-09T07:19:17;15.10;99.90
27384;DHT22;14851;51.166;4.760;2022-09-09T07:22:04;15.00;99.90
27384;DHT22;14851;51.166;4.760;2022-09-09T07:24:32;15.00;99.90
27384;DHT22;14851;51.166;4.760;2022-09-09T07:27:18;15.20;99.90
27384;DHT22;14851;51.166;4.760;2022-09-09T07:29:44;15.30;99.90
27384;DHT22;14851;51.166;4.760;2022-09-09T07:32:11;15.20;99.90
27384;DHT22;14851;51.166;4.760;2022-09-09T07:34:39;15.40;99.90
27384;DHT22;14851;51.166;4.760;2022-09-09T07:37:05;15.40;99.90
27384;DHT22;14851;51.166;4.760;2022-09-09T07:39:32;15.50;99.90
27384;DHT22;14851;51.166;4.760;2022-09-09T07:42:01;15.70;99.90
27384;DHT22;14851;51.166;4.760;2022-09-09T07:44:31;15.70;99.90
27384;DHT22;14851;51.166;4.760;2022-09-09T07:47:07;15.40;99.90
27384;DHT22;14851;51.166;4.760;2022-09-09T07:49:38;15.40;99.90
27384;DHT22;14851;51.166;4.760;2022-09-09T07:52:05;15.30;99.90
27384;DHT22;14851;51.166;4.760;2022-09-09T07:54:32;15.30;99.90
27384;DHT22;14851;51.166;4.760;2022-09-09T07:56:59;15.20;99.90
27384;DHT22;14851;51.166;4.760;2022-09-09T07:59:27;15.30;99.90
27384;DHT22;14851;51.166;4.760;2022-09-09T08:01:56;15.30;99.90
27384;DHT22;14851;51.166;4.760;2022-09-09T08:04:26;15.40;99.90
27384;DHT22;14851;51.166;4.760;2022-09-09T08:06:59;15.40;99.90
27384;DHT22;14851;51.166;4.760;2022-09-09T08:09:28;15.50;99.90
27384;DHT22;14851;51.166;4.760;2022-09-09T08:12:05;15.50;99.90
27384;DHT22;14851;51.166;4.760;2022-09-09T08:14:35;15.50;99.90
27384;DHT22;14851;51.166;4.760;2022-09-09T08:17:02;15.50;99.90
27384;DHT22;14851;51.166;4.760;2022-09-09T08:19:33;15.50;99.90
27384;DHT22;14851;51.166;4.760;2022-09-09T08:22:04;15.50;99.90
27384;DHT22;14851;51.166;4.760;2022-09-09T08:24:35;15.40;99.90
27384;DHT22;14851;51.166;4.760;2022-09-09T08:27:01;15.50;99.90
27384;DHT22;14851;51.166;4.760;2022-09-09T08:29:27;15.60;99.90
27384;DHT22;14851;51.166;4.760;2022-09-09T08:31:57;15.70;99.90
27384;DHT22;14851;51.166;4.760;2022-09-09T08:34:25;15.70;99.90
27384;DHT22;14851;51.166;4.760;2022-09-09T08:36:54;15.80;99.90
27384;DHT22;14851;51.166;4.760;2022-09-09T08:39:27;15.70;99.90
27384;DHT22;14851;51.166;4.760;2022-09-09T08:55:51;15.80;99.90
27384;DHT22;14851;51.166;4.760;2022-09-09T08:58:29;15.70;99.90
27384;DHT22;14851;51.166;4.760;2022-09-09T09:09:01;15.80;99.90
27384;DHT22;14851;51.166;4.760;2022-09-09T09:14:23;15.80;99.90
27384;DHT22;14851;51.166;4.760;2022-09-09T09:16:54;15.80;99.90
27384;DHT22;14851;51.166;4.760;2022-09-09T09:19:22;15.80;99.90
27384;DHT22;14851;51.166;4.760;2022-09-09T09:24:26;15.90;99.90
27384;DHT22;14851;51.166;4.760;2022-09-09T09:26:55;15.90;99.90
27384;DHT22;14851;51.166;4.760;2022-09-09T09:29:23;16.00;99.90
27384;DHT22;14851;51.166;4.760;2022-09-09T09:31:54;15.90;99.90
27384;DHT22;14851;51.166;4.760;2022-09-09T09:34:22;15.90;99.90
27384;DHT22;14851;51.166;4.760;2022-09-09T09:36:56;15.80;99.90
27384;DHT22;14851;51.166;4.760;2022-09-09T09:39:26;15.90;99.90
27384;DHT22;14851;51.166;4.760;2022-09-09T09:41:58;15.80;99.90
27384;DHT22;14851;51.166;4.760;2022-09-09T09:44:28;15.80;99.90
27384;DHT22;14851;51.166;4.760;2022-09-09T09:47:18;15.80;99.90
27384;DHT22;14851;51.166;4.760;2022-09-09T09:49:54;15.80;99.90
27384;DHT22;14851;51.166;4.760;2022-09-09T09:52:30;15.90;99.90
27384;DHT22;14851;51.166;4.760;2022-09-09T09:54:59;15.80;99.90
27384;DHT22;14851;51.166;4.760;2022-09-09T09:57:31;15.80;99.90
27384;DHT22;14851;51.166;4.760;2022-09-09T10:02:41;15.70;99.90
27384;DHT22;14851;51.166;4.760;2022-09-09T10:05:19;15.80;99.90
27384;DHT22;14851;51.166;4.760;2022-09-09T10:08:25;16.00;99.90
27384;DHT22;14851;51.166;4.760;2022-09-09T10:16:28;15.90;99.90
27384;DHT22;14851;51.166;4.760;2022-09-09T10:21:56;15.90;99.90
27384;DHT22;14851;51.166;4.760;2022-09-09T10:30:26;15.90;99.90
27384;DHT22;14851;51.166;4.760;2022-09-09T10:33:00;16.00;99.90
27384;DHT22;14851;51.166;4.760;2022-09-09T10:35:52;15.90;99.90
27384;DHT22;14851;51.166;4.760;2022-09-09T10:38:30;15.90;99.90
27384;DHT22;14851;51.166;4.760;2022-09-09T10:41:16;15.90;99.90
27384;DHT22;14851;51.166;4.760;2022-09-09T10:44:02;16.00;99.90
27384;DHT22;14851;51.166;4.760;2022-09-09T10:59:54;16.10;99.90
27384;DHT22;14851;51.166;4.760;2022-09-09T11:02:28;16.20;99.90
27384;DHT22;14851;51.166;4.760;2022-09-09T11:04:58;16.20;99.90
27384;DHT22;14851;51.166;4.760;2022-09-09T11:07:44;16.30;99.90
27384;DHT22;14851;51.166;4.760;2022-09-09T11:13:11;16.40;99.90
27384;DHT22;14851;51.166;4.760;2022-09-09T11:15:46;16.50;99.90
27384;DHT22;14851;51.166;4.760;2022-09-09T11:18:20;16.50;99.90
27384;DHT22;14851;51.166;4.760;2022-09-09T11:21:01;16.70;99.90
27384;DHT22;14851;51.166;4.760;2022-09-09T11:23:42;16.70;99.90
27384;DHT22;14851;51.166;4.760;2022-09-09T11:26:17;16.70;99.90
27384;DHT22;14851;51.166;4.760;2022-09-09T11:29:03;16.70;99.90
27384;DHT22;14851;51.166;4.760;2022-09-09T11:40:19;16.70;99.90
27384;DHT22;14851;51.166;4.760;2022-09-09T11:42:46;16.70;99.90
27384;DHT22;14851;51.166;4.760;2022-09-09T11:45:26;16.80;99.90
27384;DHT22;14851;51.166;4.760;2022-09-09T11:47:57;16.70;99.90
27384;DHT22;14851;51.166;4.760;2022-09-09T11:52:51;17.40;99.90
27384;DHT22;14851;51.166;4.760;2022-09-09T11:55:32;18.40;99.90
27384;DHT22;14851;51.166;4.760;2022-09-09T11:58:03;18.50;99.90
27384;DHT22;14851;51.166;4.760;2022-09-09T12:00:36;18.50;99.90
27384;DHT22;14851;51.166;4.760;2022-09-09T12:03:04;18.70;99.90
27384;DHT22;14851;51.166;4.760;2022-09-09T12:05:42;19.10;99.90
27384;DHT22;14851;51.166;4.760;2022-09-09T12:08:11;19.40;99.90
27384;DHT22;14851;51.166;4.760;2022-09-09T12:10:39;19.20;99.90
27384;DHT22;14851;51.166;4.760;2022-09-09T12:13:20;18.90;99.90
27384;DHT22;14851;51.166;4.760;2022-09-09T12:15:53;19.60;99.90
27384;DHT22;14851;51.166;4.760;2022-09-09T12:21:33;18.70;99.90
27384;DHT22;14851;51.166;4.760;2022-09-09T12:24:11;19.30;99.90
27384;DHT22;14851;51.166;4.760;2022-09-09T12:27:42;19.30;99.90
27384;DHT22;14851;51.166;4.760;2022-09-09T12:30:02;19.10;99.90
27384;DHT22;14851;51.166;4.760;2022-09-09T12:32:30;19.70;99.90
27384;DHT22;14851;51.166;4.760;2022-09-09T12:37:49;19.60;99.90
27384;DHT22;14851;51.166;4.760;2022-09-09T12:40:31;19.80;99.90
27384;DHT22;14851;51.166;4.760;2022-09-09T12:46:03;20.30;99.90
27384;DHT22;14851;51.166;4.760;2022-09-09T12:48:39;20.30;99.90
27384;DHT22;14851;51.166;4.760;2022-09-09T12:51:24;20.10;99.90
27384;DHT22;14851;51.166;4.760;2022-09-09T12:53:51;20.20;99.90
27384;DHT22;14851;51.166;4.760;2022-09-09T12:56:23;19.90;99.90
27384;DHT22;14851;51.166;4.760;2022-09-09T12:58:54;20.00;99.90
27384;DHT22;14851;51.166;4.760;2022-09-09T13:01:32;20.30;99.90
27384;DHT22;14851;51.166;4.760;2022-09-09T13:04:15;20.10;99.90
27384;DHT22;14851;51.166;4.760;2022-09-09T13:06:45;20.00;99.90
27384;DHT22;14851;51.166;4.760;2022-09-09T13:09:13;19.90;99.90
27384;DHT22;14851;51.166;4.760;2022-09-09T13:11:46;19.80;99.90
27384;DHT22;14851;51.166;4.760;2022-09-09T13:14:19;19.80;99.90
27384;DHT22;14851;51.166;4.760;2022-09-09T13:16:58;19.50;99.90
27384;DHT22;14851;51.166;4.760;2022-09-09T13:19:26;20.00;99.90
27384;DHT22;14851;51.166;4.760;2022-09-09T13:21:55;19.30;99.90
27384;DHT22;14851;51.166;4.760;2022-09-09T13:27:02;19.20;99.90
27384;DHT22;14851;51.166;4.760;2022-09-09T13:29:30;19.40;99.90
27384;DHT22;14851;51.166;4.760;2022-09-09T13:32:05;19.50;99.90
27384;DHT22;14851;51.166;4.760;2022-09-09T13:34:34;19.40;99.90
27384;DHT22;14851;51.166;4.760;2022-09-09T13:37:05;19.10;99.90
27384;DHT22;14851;51.166;4.760;2022-09-09T13:39:36;19.20;99.90
27384;DHT22;14851;51.166;4.760;2022-09-09T13:42:03;19.10;99.90
27384;DHT22;14851;51.166;4.760;2022-09-09T13:44:37;19.20;99.90
27384;DHT22;14851;51.166;4.760;2022-09-09T13:47:21;19.40;99.90
27384;DHT22;14851;51.166;4.760;2022-09-09T13:49:55;20.00;99.90
27384;DHT22;14851;51.166;4.760;2022-09-09T13:52:21;20.00;99.90
27384;DHT22;14851;51.166;4.760;2022-09-09T13:54:49;19.80;99.90
27384;DHT22;14851;51.166;4.760;2022-09-09T13:57:24;19.80;99.90
27384;DHT22;14851;51.166;4.760;2022-09-09T13:59:52;19.80;99.90
27384;DHT22;14851;51.166;4.760;2022-09-09T14:02:20;20.10;99.90
27384;DHT22;14851;51.166;4.760;2022-09-09T14:04:48;20.10;99.90
27384;DHT22;14851;51.166;4.760;2022-09-09T14:07:18;20.20;99.90
27384;DHT22;14851;51.166;4.760;2022-09-09T14:09:45;20.30;99.90
27384;DHT22;14851;51.166;4.760;2022-09-09T14:12:16;20.40;99.90
27384;DHT22;14851;51.166;4.760;2022-09-09T14:14:42;20.40;99.90
27384;DHT22;14851;51.166;4.760;2022-09-09T14:17:09;20.50;99.90
27384;DHT22;14851;51.166;4.760;2022-09-09T14:19:36;20.40;99.90
27384;DHT22;14851;51.166;4.760;2022-09-09T14:22:02;20.40;99.90
27384;DHT22;14851;51.166;4.760;2022-09-09T14:24:29;20.30;99.90
27384;DHT22;14851;51.166;4.760;2022-09-09T14:26:55;20.60;99.90
27384;DHT22;14851;51.166;4.760;2022-09-09T14:29:21;20.80;99.90
27384;DHT22;14851;51.166;4.760;2022-09-09T14:31:47;20.50;99.90
27384;DHT22;14851;51.166;4.760;2022-09-09T14:34:13;20.50;99.90
27384;DHT22;14851;51.166;4.760;2022-09-09T14:36:42;20.30;99.90
27384;DHT22;14851;51.166;4.760;2022-09-09T14:39:10;20.40;99.90
27384;DHT22;14851;51.166;4.760;2022-09-09T14:41:37;20.30;99.90
27384;DHT22;14851;51.166;4.760;2022-09-09T14:44:03;20.20;99.90
27384;DHT22;14851;51.166;4.760;2022-09-09T14:46:32;19.70;99.90
27384;DHT22;14851;51.166;4.760;2022-09-09T14:49:00;19.40;99.90
27384;DHT22;14851;51.166;4.760;2022-09-09T14:51:27;19.60;99.90
27384;DHT22;14851;51.166;4.760;2022-09-09T14:53:56;19.70;99.90
27384;DHT22;14851;51.166;4.760;2022-09-09T14:56:24;19.60;99.90
27384;DHT22;14851;51.166;4.760;2022-09-09T14:58:56;19.60;99.90
27384;DHT22;14851;51.166;4.760;2022-09-09T15:01:24;19.80;99.90
27384;DHT22;14851;51.166;4.760;2022-09-09T15:03:55;20.10;99.90
27384;DHT22;14851;51.166;4.760;2022-09-09T15:06:24;20.20;99.90
27384;DHT22;14851;51.166;4.760;2022-09-09T15:08:53;20.40;99.90
27384;DHT22;14851;51.166;4.760;2022-09-09T15:11:20;20.50;99.90
27384;DHT22;14851;51.166;4.760;2022-09-09T15:13:46;20.60;99.90
27384;DHT22;14851;51.166;4.760;2022-09-09T15:16:18;20.70;99.90
27384;DHT22;14851;51.166;4.760;2022-09-09T15:18:45;20.30;99.90
27384;DHT22;14851;51.166;4.760;2022-09-09T15:21:17;20.30;99.90
27384;DHT22;14851;51.166;4.760;2022-09-09T15:23:45;20.50;99.90
27384;DHT22;14851;51.166;4.760;2022-09-09T15:26:14;20.70;99.90
27384;DHT22;14851;51.166;4.760;2022-09-09T15:28:41;20.70;99.90
27384;DHT22;14851;51.166;4.760;2022-09-09T15:31:15;20.50;99.90
27384;DHT22;14851;51.166;4.760;2022-09-09T15:34:00;20.10;99.90
27384;DHT22;14851;51.166;4.760;2022-09-09T15:36:31;19.80;99.90
27384;DHT22;14851;51.166;4.760;2022-09-09T15:39:08;19.60;99.90
27384;DHT22;14851;51.166;4.760;2022-09-09T15:41:40;19.70;99.90
27384;DHT22;14851;51.166;4.760;2022-09-09T15:44:06;19.50;99.90
27384;DHT22;14851;51.166;4.760;2022-09-09T15:46:38;19.40;99.90
27384;DHT22;14851;51.166;4.760;2022-09-09T15:49:11;19.40;99.90
27384;DHT22;14851;51.166;4.760;2022-09-09T15:51:42;19.40;99.90
27384;DHT22;14851;51.166;4.760;2022-09-09T15:54:14;19.30;99.90
27384;DHT22;14851;51.166;4.760;2022-09-09T15:56:43;19.10;99.90
27384;DHT22;14851;51.166;4.760;2022-09-09T15:59:09;18.90;99.90
27384;DHT22;14851;51.166;4.760;2022-09-09T16:01:36;19.10;99.90
27384;DHT22;14851;51.166;4.760;2022-09-09T16:04:03;19.10;99.90
27384;DHT22;14851;51.166;4.760;2022-09-09T16:06:29;19.00;99.90
27384;DHT22;14851;51.166;4.760;2022-09-09T16:08:58;18.70;99.90
27384;DHT22;14851;51.166;4.760;2022-09-09T16:11:28;18.90;99.90
27384;DHT22;14851;51.166;4.760;2022-09-09T16:13:55;19.00;99.90
27384;DHT22;14851;51.166;4.760;2022-09-09T16:16:24;18.70;99.90
27384;DHT22;14851;51.166;4.760;2022-09-09T16:19:03;18.60;99.90
27384;DHT22;14851;51.166;4.760;2022-09-09T16:21:35;18.40;99.90
27384;DHT22;14851;51.166;4.760;2022-09-09T16:24:04;18.20;99.90
27384;DHT22;14851;51.166;4.760;2022-09-09T16:26:38;17.90;99.90
27384;DHT22;14851;51.166;4.760;2022-09-09T16:29:04;17.60;99.90
27384;DHT22;14851;51.166;4.760;2022-09-09T16:31:30;17.60;99.90
27384;DHT22;14851;51.166;4.760;2022-09-09T16:33:57;17.60;99.90
27384;DHT22;14851;51.166;4.760;2022-09-09T16:36:30;17.60;99.90
27384;DHT22;14851;51.166;4.760;2022-09-09T16:39:04;17.70;99.90
27384;DHT22;14851;51.166;4.760;2022-09-09T16:41:31;17.60;99.90
27384;DHT22;14851;51.166;4.760;2022-09-09T16:44:02;17.60;99.90
27384;DHT22;14851;51.166;4.760;2022-09-09T16:46:32;17.60;99.90
27384;DHT22;14851;51.166;4.760;2022-09-09T16:48:59;17.50;99.90
27384;DHT22;14851;51.166;4.760;2022-09-09T16:51:34;17.60;99.90
27384;DHT22;14851;51.166;4.760;2022-09-09T16:54:03;17.70;99.90
27384;DHT22;14851;51.166;4.760;2022-09-09T16:56:31;17.60;99.90
27384;DHT22;14851;51.166;4.760;2022-09-09T16:59:13;17.60;99.90
27384;DHT22;14851;51.166;4.760;2022-09-09T17:01:41;17.60;99.90
27384;DHT22;14851;51.166;4.760;2022-09-09T17:04:17;17.50;99.90
27384;DHT22;14851;51.166;4.760;2022-09-09T17:06:50;17.30;99.90
27384;DHT22;14851;51.166;4.760;2022-09-09T17:09:17;17.20;99.90
27384;DHT22;14851;51.166;4.760;2022-09-09T17:11:43;17.20;99.90
27384;DHT22;14851;51.166;4.760;2022-09-09T17:14:14;17.20;99.90
27384;DHT22;14851;51.166;4.760;2022-09-09T17:16:40;17.10;99.90
27384;DHT22;14851;51.166;4.760;2022-09-09T17:19:07;17.10;99.90
27384;DHT22;14851;51.166;4.760;2022-09-09T17:21:35;17.10;99.90
27384;DHT22;14851;51.166;4.760;2022-09-09T17:24:04;17.10;99.90
27384;DHT22;14851;51.166;4.760;2022-09-09T17:26:32;17.10;99.90
27384;DHT22;14851;51.166;4.760;2022-09-09T17:28:59;17.00;99.90
27384;DHT22;14851;51.166;4.760;2022-09-09T17:31:28;16.70;99.90
27384;DHT22;14851;51.166;4.760;2022-09-09T17:33:55;16.70;99.90
27384;DHT22;14851;51.166;4.760;2022-09-09T17:36:25;16.70;99.90
27384;DHT22;14851;51.166;4.760;2022-09-09T17:38:51;16.80;99.90
27384;DHT22;14851;51.166;4.760;2022-09-09T17:41:27;16.70;99.90
27384;DHT22;14851;51.166;4.760;2022-09-09T17:43:54;16.70;99.90
27384;DHT22;14851;51.166;4.760;2022-09-09T17:46:30;16.60;99.90
27384;DHT22;14851;51.166;4.760;2022-09-09T17:49:00;16.60;99.90
27384;DHT22;14851;51.166;4.760;2022-09-09T17:51:28;16.80;99.90
27384;DHT22;14851;51.166;4.760;2022-09-09T17:54:02;16.60;99.90
27384;DHT22;14851;51.166;4.760;2022-09-09T17:56:31;16.50;99.90